Impacts METAR Board
IDs:

KPHL - Philadelphia Intl, PA, US

Updated at: 2200 UTC 02 Oct 2022
Potential Impact None Slight Moderate High
Time 02/10Z 02/11Z 02/12Z 02/13Z 02/14Z 02/15Z 02/16Z 02/17Z 02/18Z 02/19Z 02/20Z 02/21Z 02/22Z
Temp60 59 57 56 56 57 57 57 57 56 56 56 55
Dewpt55 54 53 53 53 54 54 53 53 52 52 50 51
Altim29.93 29.95 29.97 29.99 30.01 30.02 30.03 30.03 30.04 30.04 30.05 30.06 30.11
VIS10 4 2 4 5 7 2.5 4 5 5 4 6 7
CIG16 16 20 17 13 13 12 12 12 14 14 15 25
CoverOVCOVCOVCOVCOVCOVCOVCOVCOVCOVCOVCOVCOVC
FltCatMVFRMVFRIFRMVFRMVFRMVFRIFRMVFRMVFRMVFRMVFRMVFRMVFR
WX---RARARA-RA-RARA-RARARA BRRA BR-RA BRRA
WDir50505040202030303030404040
WSpd8 15 10 10 12 10 19 20 20 19 22 19 14
WGst-- 24 -- -- -- -- 25 29 26 25 25 29 19
Raw hourly METARs
KPHL 020954Z 05008KT 10SM OVC016 16/13 A2993 RMK AO2 RAE00 SLP134 P0000 T01560128
KPHL 021054Z 05015G24KT 4SM -RA OVC016 15/12 A2995 RMK AO2 RAB27E38B47 SLP140 P0000 T01500122
KPHL 021202Z 05010KT 2SM R09R/6000VP6000FT RA SCT015 BKN020 OVC026 14/12 A2997 RMK AO2 P0002 T01390117
KPHL 021254Z 04010KT 4SM RA FEW008 BKN017 OVC029 13/12 A2999 RMK AO2 SLP155 P0012 T01330117
KPHL 021354Z 02012KT 5SM -RA BKN013 BKN025 OVC037 13/12 A3001 RMK AO2 SLP162 P0009 T01330117
KPHL 021454Z 02010KT 7SM -RA BKN013 OVC025 14/12 A3002 RMK AO2 RAE37B53 SLP166 P0002 60023 T01390122 51017
KPHL 021554Z 03019G25KT 2 1/2SM RA BKN012 OVC018 14/12 A3003 RMK AO2 SLP168 P0016 T01390122
KPHL 021654Z 03020G29KT 4SM -RA BKN012 OVC018 14/12 A3003 RMK AO2 PK WND 03029/1653 SLP167 P0010 T01390117
KPHL 021754Z 03020G26KT 5SM RA BKN012 OVC018 14/12 A3004 RMK AO2 PK WND 03029/1713 SLP173 P0006 60055 T01390117 10144 20133 53007
KPHL 021854Z 03019G25KT 5SM R09R/5500VP6000FT RA BR BKN014 OVC021 13/11 A3004 RMK AO2 PK WND 03028/1844 SLP173 P0021 T01330111
KPHL 021954Z 04022G25KT 4SM RA BR BKN014 OVC022 13/11 A3005 RMK AO2 PK WND 03034/1915 SLP175 P0023 T01330111
KPHL 022054Z 04019G29KT 6SM -RA BR BKN015 OVC021 13/10 A3006 RMK AO2 PK WND 04029/2047 SLP180 P0006 60050 T01330100 53006
KPHL 022154Z 04014G19KT 7SM RA SCT015 BKN025 OVC030 13/11 A3011 RMK AO2 PK WND 03028/2056 SLP194 P0006 T01280106



Page loaded:  22:13 UTC  |   03:13 PM Pacific  |   04:13 PM Mountain  |   05:13 PM Central  |   06:13 PM Eastern

 

ADVISORIES

FORECASTS

FORECASTS

OBSERVATIONS

USER TOOLS

ABOUT US